Time;durP1;ratioP1;P1;durP2;ratioP2;P2;SDS_P1;SDS_P2;PMS_P1;PMS_P2;Temp;Humidity;BMP_temperature;BMP_pressure;BME280_temperature;BME280_humidity;BME280_pressure;Samples;Min_cycle;Max_cycle;Signal;HPM_P1;HPM_P2
2022/12/09 03:48:23;;;;;;;3.70;2.00;;;14.30;93.60;;;;;;4985126;28;20081;-91
2022/12/09 03:50:55;;;;;;;10.95;2.72;;;14.30;93.60;;;;;;4972555;28;20058;-92
2022/12/09 03:53:34;;;;;;;4.13;2.10;;;14.40;93.60;;;;;;4972408;28;20039;-91
2022/12/09 03:56:12;;;;;;;5.57;1.95;;;14.30;93.60;;;;;;4956366;28;20030;-90
2022/12/09 03:58:39;;;;;;;9.63;2.83;;;14.30;93.80;;;;;;4972303;28;20031;-91
2022/12/09 04:01:06;;;;;;;12.23;2.60;;;14.30;93.80;;;;;;4956310;28;20026;-91
2022/12/09 04:03:32;;;;;;;14.70;3.08;;;14.40;93.80;;;;;;4965767;28;20054;-91
2022/12/09 04:05:58;;;;;;;11.55;2.42;;;14.40;93.90;;;;;;4975349;28;20034;-90
2022/12/09 04:08:23;;;;;;;9.43;2.58;;;14.30;93.90;;;;;;4966981;28;20069;-91
2022/12/09 04:10:49;;;;;;;6.65;2.17;;;14.30;93.90;;;;;;4956281;28;20042;-91
2022/12/09 04:13:14;;;;;;;14.13;2.63;;;14.40;94.00;;;;;;4965608;28;20057;-91
2022/12/09 04:15:40;;;;;;;7.95;2.30;;;14.30;94.00;;;;;;4975494;28;20029;-91
2022/12/09 04:18:05;;;;;;;13.88;2.47;;;14.30;94.00;;;;;;4959221;28;20039;-91
2022/12/09 04:20:31;;;;;;;9.32;2.50;;;14.30;94.00;;;;;;4957836;28;20027;-91
2022/12/09 04:22:56;;;;;;;7.40;2.83;;;14.30;94.00;;;;;;4956216;28;20121;-89
2022/12/09 04:25:22;;;;;;;11.63;3.00;;;14.30;94.00;;;;;;4969653;28;20026;-91
2022/12/09 04:27:47;;;;;;;8.82;2.47;;;14.40;94.00;;;;;;4958704;28;20027;-91
2022/12/09 04:30:13;;;;;;;4.50;2.30;;;14.40;94.00;;;;;;4975362;28;20062;-91
2022/12/09 04:32:39;;;;;;;9.50;2.60;;;14.30;94.10;;;;;;4965324;28;20091;-91
2022/12/09 04:35:04;;;;;;;7.47;2.50;;;14.40;94.20;;;;;;4974099;28;20376;-91
2022/12/09 04:37:30;;;;;;;5.65;2.28;;;14.30;94.10;;;;;;4978984;28;20083;-90
2022/12/09 04:39:55;;;;;;;9.80;2.60;;;14.30;94.10;;;;;;4968448;28;20109;-92
2022/12/09 04:42:21;;;;;;;2.92;2.13;;;14.30;94.10;;;;;;4978050;28;20461;-91
2022/12/09 04:44:47;;;;;;;7.55;2.47;;;14.30;94.10;;;;;;4996564;28;20057;-91
2022/12/09 04:47:12;;;;;;;7.45;3.13;;;14.30;94.10;;;;;;4979218;28;20038;-91
2022/12/09 04:49:38;;;;;;;7.30;2.47;;;14.20;94.10;;;;;;4978764;28;20029;-92
2022/12/09 04:52:03;;;;;;;4.18;2.38;;;14.20;94.00;;;;;;4965171;28;20113;-91
2022/12/09 04:54:29;;;;;;;5.20;2.42;;;14.20;94.00;;;;;;4959544;28;20034;-90
2022/12/09 04:56:54;;;;;;;4.50;2.03;;;14.20;94.00;;;;;;4959617;28;20022;-91
2022/12/09 04:59:20;;;;;;;6.93;2.63;;;14.20;94.00;;;;;;4959309;28;20456;-91
2022/12/09 05:01:46;;;;;;;3.90;2.25;;;14.20;94.00;;;;;;4959362;28;20365;-92
2022/12/09 05:04:11;;;;;;;5.65;2.25;;;14.20;94.00;;;;;;4959664;28;20041;-91
2022/12/09 05:06:37;;;;;;;7.85;2.78;;;14.20;94.00;;;;;;4959399;28;20058;-91
2022/12/09 05:09:03;;;;;;;4.30;2.25;;;14.20;93.90;;;;;;4963757;28;20030;-90
2022/12/09 05:11:28;;;;;;;6.72;2.78;;;14.20;93.90;;;;;;4978867;28;20027;-90
2022/12/09 05:13:54;;;;;;;9.15;2.65;;;14.20;94.00;;;;;;4967185;28;20039;-91
2022/12/09 05:16:20;;;;;;;9.13;2.92;;;14.20;93.90;;;;;;4959181;28;20480;-91
2022/12/09 05:18:47;;;;;;;13.98;2.97;;;14.20;94.10;;;;;;4970275;28;20030;-91
2022/12/09 05:21:15;;;;;;;6.68;2.92;;;14.20;94.10;;;;;;4978395;28;20022;-89
2022/12/09 05:23:41;;;;;;;10.77;2.45;;;14.20;94.30;;;;;;4978593;28;20033;-91
2022/12/09 05:26:13;;;;;;;7.32;2.22;;;14.20;94.30;;;;;;4980724;28;20030;-91
2022/12/09 05:28:38;;;;;;;8.77;3.10;;;14.20;94.20;;;;;;4994367;28;20072;-91
2022/12/09 05:31:07;;;;;;;5.15;2.63;;;14.20;94.10;;;;;;4997512;28;20109;-92
2022/12/09 05:33:33;;;;;;;8.60;2.90;;;14.20;94.10;;;;;;4997346;28;20022;-91
2022/12/09 05:35:59;;;;;;;3.72;2.20;;;14.20;94.10;;;;;;4978201;28;20022;-91
2022/12/09 05:38:25;;;;;;;6.72;2.75;;;14.20;94.10;;;;;;4977965;28;20025;-91
2022/12/09 05:40:50;;;;;;;13.52;2.63;;;14.10;94.00;;;;;;4983144;28;20427;-92
2022/12/09 05:43:17;;;;;;;5.53;2.13;;;14.10;94.00;;;;;;4978050;28;20484;-92
2022/12/09 05:45:43;;;;;;;13.05;3.28;;;14.10;94.00;;;;;;4976501;28;20023;-92
2022/12/09 05:48:08;;;;;;;7.00;2.50;;;14.10;94.10;;;;;;4966963;28;20101;-92
2022/12/09 05:50:34;;;;;;;7.68;2.72;;;14.10;94.00;;;;;;4958487;28;20122;-93
2022/12/09 05:53:00;;;;;;;7.97;2.17;;;14.00;94.00;;;;;;4958538;28;20559;-92
2022/12/09 05:55:25;;;;;;;7.43;2.53;;;14.10;94.00;;;;;;4958555;28;20065;-92
2022/12/09 05:57:51;;;;;;;7.18;2.67;;;14.10;94.00;;;;;;4958244;28;20081;-92
2022/12/09 06:00:16;;;;;;;7.15;3.10;;;14.00;93.90;;;;;;4958597;28;20015;-92
2022/12/09 06:02:42;;;;;;;6.53;2.35;;;14.00;93.90;;;;;;4958659;28;20031;-92
2022/12/09 06:05:08;;;;;;;6.25;2.40;;;14.00;93.90;;;;;;4980332;28;20387;-93
2022/12/09 06:07:34;;;;;;;6.53;2.67;;;14.10;93.90;;;;;;4977658;28;20057;-89
2022/12/09 06:10:00;;;;;;;8.07;2.67;;;14.00;93.90;;;;;;4975351;28;20022;-91
2022/12/09 06:12:26;;;;;;;3.63;2.63;;;14.00;93.90;;;;;;4969589;28;20033;-91
2022/12/09 06:14:52;;;;;;;3.80;2.47;;;14.00;93.90;;;;;;4969182;28;20077;-92
2022/12/09 06:17:17;;;;;;;5.22;2.42;;;14.00;93.90;;;;;;4964493;28;20027;-91
2022/12/09 06:19:43;;;;;;;6.28;2.28;;;14.00;93.90;;;;;;4968995;28;20054;-92
2022/12/09 06:22:08;;;;;;;9.43;2.83;;;14.00;93.90;;;;;;4980082;28;20027;-92
2022/12/09 06:24:34;;;;;;;8.93;2.45;;;14.00;93.90;;;;;;4977198;28;20019;-92
2022/12/09 06:27:00;;;;;;;5.28;2.35;;;13.90;93.80;;;;;;4966383;28;20029;-92
2022/12/09 06:29:26;;;;;;;17.15;3.35;;;13.90;93.90;;;;;;4972925;28;20022;-90
2022/12/09 06:31:52;;;;;;;19.20;2.95;;;14.00;94.00;;;;;;4978102;28;20687;-90
2022/12/09 06:34:17;;;;;;;18.77;3.53;;;14.10;93.90;;;;;;4978829;28;20445;-90
2022/12/09 06:36:43;;;;;;;13.02;3.10;;;14.10;93.90;;;;;;4976861;28;20499;-91
2022/12/09 06:39:09;;;;;;;26.50;4.05;;;14.10;93.90;;;;;;4977813;28;20365;-89
2022/12/09 06:41:34;;;;;;;18.58;3.70;;;14.00;94.00;;;;;;4977380;28;20029;-90
2022/12/09 06:44:00;;;;;;;20.75;3.40;;;14.10;94.10;;;;;;4976944;28;20030;-89
2022/12/09 06:46:26;;;;;;;27.23;3.78;;;14.10;94.10;;;;;;4974604;28;20030;-90
2022/12/09 06:48:53;;;;;;;14.05;3.67;;;14.10;94.10;;;;;;4961919;28;20125;-90
2022/12/09 06:51:20;;;;;;;15.75;3.58;;;14.00;94.00;;;;;;4960195;28;20030;-90
2022/12/09 06:53:46;;;;;;;14.00;3.35;;;14.00;94.10;;;;;;4973532;28;20373;-89
2022/12/09 06:56:13;;;;;;;14.73;3.92;;;14.00;94.10;;;;;;4973212;28;20027;-88
2022/12/09 06:58:43;;;;;;;16.98;3.05;;;14.00;94.10;;;;;;4973251;28;20028;-89
2022/12/09 07:01:15;;;;;;;7.30;2.95;;;14.00;94.10;;;;;;4973226;28;20113;-88
2022/12/09 07:03:42;;;;;;;14.65;3.17;;;14.00;94.70;;;;;;4989924;28;20034;-89
2022/12/09 07:06:24;;;;;;;18.80;2.90;;;14.10;94.30;;;;;;4992859;28;20026;-90
2022/12/09 07:08:50;;;;;;;20.58;2.75;;;14.10;94.20;;;;;;4988848;28;20026;-90
2022/12/09 07:11:16;;;;;;;20.13;7.00;;;14.00;94.10;;;;;;4974493;28;20033;-90
2022/12/09 07:13:41;;;;;;;16.25;6.03;;;13.30;90.40;;;;;;4981806;28;20157;-91
2022/12/09 07:16:07;;;;;;;11.90;4.80;;;13.40;92.70;;;;;;4978651;28;20518;-91
2022/12/09 07:18:32;;;;;;;16.63;5.00;;;13.60;92.60;;;;;;4956779;28;20027;-91
2022/12/09 07:21:05;;;;;;;15.32;4.60;;;13.70;92.60;;;;;;4956930;28;20026;-93
2022/12/09 07:23:31;;;;;;;10.98;4.03;;;13.80;92.60;;;;;;4956868;28;20027;-91
2022/12/09 07:25:57;;;;;;;9.30;4.75;;;13.90;92.60;;;;;;4959585;28;20451;-91
2022/12/09 07:28:22;;;;;;;17.20;4.55;;;14.00;92.70;;;;;;4976073;28;20605;-91
2022/12/09 07:30:48;;;;;;;10.35;4.47;;;14.10;92.70;;;;;;4966076;28;20481;-91
2022/12/09 07:33:15;;;;;;;14.30;4.40;;;14.10;92.70;;;;;;4941095;28;20118;-90
2022/12/09 07:35:40;;;;;;;9.90;4.05;;;14.20;92.70;;;;;;4958610;28;20050;-91
2022/12/09 07:38:06;;;;;;;14.98;4.75;;;14.20;92.70;;;;;;4976171;28;20026;-91
2022/12/09 07:40:31;;;;;;;12.27;4.55;;;14.30;92.70;;;;;;4993155;28;20034;-91
2022/12/09 07:42:57;;;;;;;14.27;4.18;;;14.30;92.80;;;;;;4978384;28;20024;-91
2022/12/09 07:45:22;;;;;;;6.88;3.53;;;14.30;92.70;;;;;;4976561;28;20038;-91
2022/12/09 07:47:48;;;;;;;7.95;3.13;;;14.40;92.80;;;;;;4959513;28;20036;-90
2022/12/09 07:50:13;;;;;;;6.05;3.42;;;14.40;92.80;;;;;;4975831;28;20075;-90
2022/12/09 07:52:39;;;;;;;13.15;3.42;;;14.40;92.90;;;;;;4975817;28;20070;-91
2022/12/09 07:55:05;;;;;;;6.57;2.88;;;14.50;92.90;;;;;;4965790;28;20495;-91
2022/12/09 07:57:33;;;;;;;9.05;3.50;;;14.50;92.90;;;;;;4956140;28;20507;-89
2022/12/09 07:59:58;;;;;;;8.25;3.22;;;14.50;92.80;;;;;;4956253;28;20027;-90
2022/12/09 08:02:24;;;;;;;9.60;3.00;;;14.60;92.90;;;;;;4958459;28;20663;-92
2022/12/09 08:04:49;;;;;;;6.50;3.20;;;14.60;92.80;;;;;;4956328;28;20027;-91
2022/12/09 08:07:15;;;;;;;7.30;2.83;;;14.60;92.90;;;;;;4956017;28;20031;-91
2022/12/09 08:09:40;;;;;;;7.85;2.85;;;14.60;92.80;;;;;;4956114;28;20113;-90
2022/12/09 08:12:06;;;;;;;7.97;2.92;;;14.70;92.80;;;;;;4956181;28;20381;-91
2022/12/09 08:14:31;;;;;;;8.57;3.20;;;14.70;92.80;;;;;;4956016;28;20066;-91
2022/12/09 08:16:57;;;;;;;4.90;2.75;;;14.70;92.80;;;;;;4979301;28;20023;-90
2022/12/09 08:19:22;;;;;;;5.03;2.85;;;14.70;92.70;;;;;;4972212;28;20387;-91
2022/12/09 08:21:48;;;;;;;8.40;2.85;;;14.70;92.80;;;;;;4975250;28;20022;-91
2022/12/09 08:24:14;;;;;;;7.88;3.20;;;14.70;92.80;;;;;;4991400;28;20166;-91
2022/12/09 08:26:40;;;;;;;15.02;2.72;;;14.70;92.80;;;;;;4975386;28;20026;-91
2022/12/09 08:29:10;;;;;;;5.68;2.90;;;14.70;92.80;;;;;;4966998;28;20031;-90
2022/12/09 08:31:36;;;;;;;7.88;2.80;;;14.70;92.80;;;;;;4956185;28;20125;-90
2022/12/09 08:34:03;;;;;;;5.85;2.78;;;14.70;92.80;;;;;;4955942;28;20503;-90
2022/12/09 08:36:30;;;;;;;5.50;3.00;;;14.70;92.90;;;;;;4956011;28;20118;-91
2022/12/09 08:38:59;;;;;;;7.15;2.97;;;14.70;92.80;;;;;;4958263;28;20023;-90
2022/12/09 08:41:34;;;;;;;7.38;2.60;;;14.70;92.80;;;;;;4991587;28;20029;-91
2022/12/09 08:44:05;;;;;;;6.53;2.72;;;14.70;92.80;;;;;;4991555;28;20056;-90
2022/12/09 08:46:32;;;;;;;8.82;2.83;;;14.70;92.80;;;;;;4991173;28;20034;-91
2022/12/09 08:49:00;;;;;;;5.80;2.35;;;14.80;92.70;;;;;;4978153;28;20060;-91
2022/12/09 08:51:26;;;;;;;5.18;2.60;;;14.80;92.70;;;;;;4975159;28;20419;-91
2022/12/09 08:53:51;;;;;;;6.10;2.90;;;14.80;92.70;;;;;;4975124;28;20048;-90
2022/12/09 08:56:17;;;;;;;8.20;2.97;;;14.80;92.60;;;;;;4975117;28;20117;-91
2022/12/09 08:58:43;;;;;;;5.05;3.10;;;14.80;92.60;;;;;;4973906;28;20034;-91
2022/12/09 09:01:21;;;;;;;6.80;3.22;;;14.80;92.60;;;;;;4971911;28;20038;-90
2022/12/09 09:03:49;;;;;;;5.00;2.80;;;14.70;92.50;;;;;;4975210;28;20033;-90
2022/12/09 09:06:16;;;;;;;4.13;3.03;;;14.80;92.50;;;;;;4968519;28;20122;-91
2022/12/09 09:08:41;;;;;;;4.05;2.53;;;14.70;92.40;;;;;;4974648;28;20504;-91
2022/12/09 09:11:12;;;;;;;6.60;3.40;;;14.70;92.20;;;;;;4970317;28;20037;-91
2022/12/09 09:13:40;;;;;;;7.40;3.80;;;14.80;92.20;;;;;;4975057;28;20054;-91
2022/12/09 09:16:11;;;;;;;6.30;3.15;;;14.80;92.10;;;;;;4975005;28;20034;-91
2022/12/09 09:18:37;;;;;;;3.65;2.67;;;14.80;92.10;;;;;;4975562;28;20037;-91
2022/12/09 09:21:05;;;;;;;5.50;3.00;;;14.80;92.00;;;;;;4995969;28;20027;-90
2022/12/09 09:23:31;;;;;;;6.60;3.30;;;14.80;92.00;;;;;;4959952;28;20030;-90
2022/12/09 09:25:57;;;;;;;3.13;2.42;;;14.90;92.00;;;;;;4980036;28;20022;-90
2022/12/09 09:28:22;;;;;;;5.25;2.85;;;14.90;92.00;;;;;;4967297;28;20027;-90
2022/12/09 09:30:49;;;;;;;19.88;9.02;;;14.90;91.90;;;;;;4966919;28;20419;-90
2022/12/09 09:33:16;;;;;;;25.02;10.98;;;13.00;79.90;;;;;;4978169;28;20373;-89
2022/12/09 09:35:42;;;;;;;21.17;9.85;;;11.80;73.50;;;;;;4978152;28;20027;-90
2022/12/09 09:38:07;;;;;;;21.63;10.48;;;10.70;76.60;;;;;;4995449;28;20034;-90
2022/12/09 09:40:33;;;;;;;21.10;9.35;;;10.70;78.10;;;;;;4964147;28;20162;-90
2022/12/09 09:42:59;;;;;;;21.77;9.75;;;11.70;79.00;;;;;;4981487;28;20081;-90
2022/12/09 09:45:25;;;;;;;13.93;7.60;;;12.40;78.60;;;;;;4974076;28;20033;-88
2022/12/09 09:48:01;;;;;;;20.13;7.93;;;12.90;78.40;;;;;;4961122;28;20039;-89
2022/12/09 09:50:47;;;;;;;23.15;7.95;;;13.20;79.00;;;;;;4974386;28;20165;-88
2022/12/09 09:53:36;;;;;;;19.88;7.03;;;13.40;79.20;;;;;;4960810;28;20027;-87
2022/12/09 09:56:17;;;;;;;14.25;6.80;;;13.60;79.70;;;;;;4882395;29;20037;-88
2022/12/09 09:58:52;;;;;;;;;;;13.80;80.20;;;;;;4899993;29;20040;-89
2022/12/09 10:01:21;;;;;;;12.07;5.70;;;13.90;80.70;;;;;;4900161;29;19907;-90
2022/12/09 10:04:15;;;;;;;11.38;5.65;;;14.00;81.30;;;;;;4885903;29;20039;-90
2022/12/09 10:06:50;;;;;;;13.77;5.38;;;14.10;81.80;;;;;;4902191;29;20037;-90
2022/12/09 10:09:32;;;;;;;9.88;5.78;;;14.30;82.40;;;;;;4897063;29;20079;-90
2022/12/09 10:12:11;;;;;;;10.68;4.97;;;14.30;82.80;;;;;;4899192;29;20118;-90
2022/12/09 10:15:01;;;;;;;9.32;4.95;;;14.40;83.30;;;;;;4908542;29;20040;-90
2022/12/09 10:17:38;;;;;;;13.30;5.32;;;14.40;83.70;;;;;;4911434;29;20086;-88
2022/12/09 10:20:16;;;;;;;9.98;5.75;;;14.50;84.10;;;;;;4915874;29;20036;-90
2022/12/09 10:22:55;;;;;;;10.05;4.70;;;14.50;84.50;;;;;;4910263;29;20036;-90
2022/12/09 10:25:24;;;;;;;8.90;4.68;;;14.50;84.90;;;;;;4900019;29;20056;-89
2022/12/09 10:28:00;;;;;;;7.53;4.53;;;14.60;85.20;;;;;;4915033;29;20024;-89
2022/12/09 10:30:25;;;;;;;8.40;4.00;;;14.70;85.50;;;;;;4909051;29;20051;-86
2022/12/09 10:32:52;;;;;;;7.55;4.10;;;14.70;85.80;;;;;;4948150;28;20126;-88
2022/12/09 10:35:27;;;;;;;10.90;3.63;;;14.80;86.10;;;;;;4991752;28;20436;-91
2022/12/09 10:38:03;;;;;;;14.73;4.25;;;14.80;86.30;;;;;;4971189;28;20026;-89
2022/12/09 10:40:51;;;;;;;8.32;3.90;;;14.80;86.50;;;;;;4970721;28;20026;-86
2022/12/09 10:43:42;;;;;;;9.02;4.22;;;14.90;86.80;;;;;;4990270;28;20018;-89
2022/12/09 10:46:08;;;;;;;14.70;5.78;;;15.00;87.10;;;;;;4988397;28;20030;-87
2022/12/09 10:48:39;;;;;;;17.52;5.07;;;15.00;87.30;;;;;;4996426;28;20026;-87
2022/12/09 10:51:17;;;;;;;19.00;4.38;;;15.10;87.50;;;;;;4994897;28;20483;-87
2022/12/09 10:53:53;;;;;;;15.20;4.68;;;15.10;87.70;;;;;;4959764;28;20145;-88
2022/12/09 10:56:24;;;;;;;24.25;4.65;;;15.10;87.90;;;;;;4972875;28;20023;-88
2022/12/09 10:59:06;;;;;;;14.27;4.22;;;15.20;88.00;;;;;;4969093;28;20031;-87
2022/12/09 11:01:53;;;;;;;11.52;4.88;;;15.30;88.20;;;;;;4994311;28;20157;-89
2022/12/09 11:04:24;;;;;;;16.52;5.53;;;15.30;88.40;;;;;;4988791;28;20025;-88
2022/12/09 11:06:51;;;;;;;9.25;4.10;;;15.30;88.60;;;;;;4995981;28;20372;-88
2022/12/09 11:09:26;;;;;;;9.10;4.53;;;15.30;88.70;;;;;;4981972;28;20033;-88
2022/12/09 11:11:52;;;;;;;22.15;4.40;;;15.30;88.90;;;;;;4976396;28;20056;-87
2022/12/09 11:14:24;;;;;;;16.13;4.60;;;15.40;89.10;;;;;;4992508;28;20475;-88
2022/12/09 11:16:52;;;;;;;25.17;5.95;;;15.40;89.60;;;;;;4994536;28;20022;-88
2022/12/09 11:19:26;;;;;;;14.98;5.00;;;15.40;89.40;;;;;;4986296;28;20034;-88
2022/12/09 11:22:21;;;;;;;11.52;4.68;;;15.50;89.50;;;;;;4956976;28;20038;-88
2022/12/09 11:24:47;;;;;;;16.20;4.30;;;15.50;89.50;;;;;;4960015;28;20028;-90
2022/12/09 11:27:26;;;;;;;9.00;3.95;;;15.50;89.60;;;;;;4983737;28;20041;-88
2022/12/09 11:30:11;;;;;;;7.82;3.97;;;15.60;89.60;;;;;;4993744;28;20079;-88
2022/12/09 11:32:59;;;;;;;13.80;4.20;;;15.60;89.60;;;;;;4972721;28;20034;-90
2022/12/09 11:35:38;;;;;;;11.00;3.47;;;15.60;89.70;;;;;;4972955;28;20479;-90
2022/12/09 11:38:14;;;;;;;8.55;3.83;;;15.60;89.60;;;;;;4973102;28;20081;-88
2022/12/09 11:40:40;;;;;;;15.80;4.30;;;15.60;89.60;;;;;;4974909;28;20026;-87
2022/12/09 11:43:06;;;;;;;17.05;4.70;;;15.60;89.60;;;;;;4992956;28;20022;-89
2022/12/09 11:45:37;;;;;;;12.02;4.40;;;15.70;89.60;;;;;;4991874;28;20381;-89
2022/12/09 11:48:17;;;;;;;26.85;4.68;;;15.70;89.50;;;;;;4973543;28;20130;-88
2022/12/09 11:50:48;;;;;;;8.70;4.10;;;15.70;89.50;;;;;;4956747;28;20077;-88
2022/12/09 11:53:28;;;;;;;20.02;4.63;;;15.70;89.60;;;;;;4974626;28;20031;-86
2022/12/09 11:56:12;;;;;;;18.35;4.75;;;15.70;89.70;;;;;;4986927;23;20050;-91
2022/12/09 11:58:41;;;;;;;9.20;3.55;;;15.80;89.60;;;;;;4987883;28;20027;-93
2022/12/09 12:01:19;;;;;;;8.43;3.97;;;15.70;89.70;;;;;;4998483;28;20018;-93
2022/12/09 12:04:03;;;;;;;12.23;3.58;;;15.70;89.80;;;;;;5019563;28;20367;-92
2022/12/09 12:07:02;;;;;;;14.20;3.95;;;15.70;89.70;;;;;;5001126;28;20412;-93
2022/12/09 12:09:30;;;;;;;20.85;3.92;;;15.70;89.70;;;;;;4974441;28;20066;-92
2022/12/09 12:12:05;;;;;;;12.57;4.00;;;15.70;89.70;;;;;;4975649;28;20418;-92
2022/12/09 12:14:34;;;;;;;9.55;3.67;;;15.70;89.70;;;;;;4975569;28;20062;-92
2022/12/09 12:17:27;;;;;;;11.35;3.47;;;15.70;89.70;;;;;;4975155;28;20038;-91
2022/12/09 12:19:55;;;;;;;13.20;4.60;;;15.70;89.70;;;;;;4975421;28;20030;-92
2022/12/09 12:22:39;;;;;;;16.27;3.42;;;15.70;89.70;;;;;;4975218;28;20504;-92
2022/12/09 12:25:29;;;;;;;12.02;3.88;;;15.70;89.60;;;;;;4976004;28;20038;-92
2022/12/09 12:28:16;;;;;;;12.48;3.97;;;15.70;89.60;;;;;;4975215;28;20098;-92
2022/12/09 12:31:09;;;;;;;7.07;4.05;;;15.70;89.50;;;;;;4975159;28;20030;-91
2022/12/09 12:33:34;;;;;;;6.30;3.25;;;15.80;89.40;;;;;;4966430;28;20023;-92
2022/12/09 12:36:22;;;;;;;8.90;4.10;;;15.70;89.40;;;;;;4955766;29;20027;-93
2022/12/09 12:38:47;;;;;;;8.80;3.60;;;15.80;89.40;;;;;;4955005;29;20110;-92
2022/12/09 12:41:47;;;;;;;7.13;3.50;;;15.70;89.30;;;;;;4955624;29;20533;-92
2022/12/09 12:47:50;;;;;;;6.30;3.28;;;15.80;89.20;;;;;;4960606;28;20046;-92
2022/12/09 12:50:37;;;;;;;;;;;15.80;89.30;;;;;;4958903;28;20101;-92
2022/12/09 12:53:17;;;;;;;7.82;3.80;;;15.80;89.20;;;;;;4907856;29;19913;-93
2022/12/09 12:56:05;;;;;;;12.80;4.00;;;15.80;89.30;;;;;;4958413;29;20042;-92
2022/12/09 12:58:59;;;;;;;11.82;3.90;;;15.80;89.20;;;;;;4958714;29;20385;-92
2022/12/09 13:01:30;;;;;;;11.23;3.55;;;15.80;89.30;;;;;;4973273;28;20050;-92
2022/12/09 13:04:07;;;;;;;5.38;3.70;;;15.80;89.30;;;;;;4978403;28;20037;-92
2022/12/09 13:07:10;;;;;;;5.15;3.10;;;15.90;89.30;;;;;;4969856;28;20027;-93
2022/12/09 13:09:54;;;;;;;6.97;3.40;;;15.80;89.20;;;;;;4974434;28;20035;-93
2022/12/09 13:15:17;;;;;;;7.57;3.15;;;15.80;89.40;;;;;;4973457;28;20046;-92
2022/12/09 13:17:46;;;;;;;7.43;3.13;;;15.80;89.50;;;;;;4977368;28;20027;-92
2022/12/09 13:20:22;;;;;;;9.07;3.88;;;15.80;89.50;;;;;;4977635;28;20019;-92
2022/12/09 13:23:17;;;;;;;6.35;3.17;;;15.70;89.50;;;;;;4977440;28;20027;-92
2022/12/09 13:26:14;;;;;;;5.72;3.45;;;15.80;89.60;;;;;;4894001;28;20467;-92
2022/12/09 13:29:22;;;;;;;5.70;3.10;;;15.80;89.50;;;;;;4976841;28;20022;-92
2022/12/09 13:32:06;;;;;;;5.65;3.25;;;15.80;89.50;;;;;;4957744;29;20034;-93
2022/12/09 13:34:50;;;;;;;5.13;3.30;;;15.80;89.40;;;;;;4957811;29;20031;-92
2022/12/09 13:37:32;;;;;;;4.95;3.42;;;15.80;89.40;;;;;;4957695;29;20019;-92
2022/12/09 13:39:59;;;;;;;6.70;3.58;;;15.90;89.60;;;;;;4974049;28;20161;-92
2022/12/09 13:45:22;;;;;;;5.45;3.50;;;15.80;89.50;;;;;;4963497;28;20578;-93
2022/12/09 13:47:48;;;;;;;12.55;3.42;;;15.80;89.40;;;;;;4977853;28;20035;-93
2022/12/09 13:50:29;;;;;;;10.77;3.20;;;15.80;89.40;;;;;;4976899;28;20522;-93
2022/12/09 13:53:25;;;;;;;10.70;3.13;;;15.80;89.40;;;;;;4967650;28;20025;-93
2022/12/09 13:55:54;;;;;;;6.95;3.42;;;15.80;89.40;;;;;;4932652;28;20056;-93
2022/12/09 13:58:45;;;;;;;6.55;3.42;;;15.80;89.50;;;;;;4977635;28;20104;-92
2022/12/09 14:01:10;;;;;;;9.13;3.10;;;15.80;89.60;;;;;;4976924;28;20046;-92
2022/12/09 14:03:52;;;;;;;7.57;4.13;;;15.80;89.60;;;;;;4976748;28;20023;-93
2022/12/09 14:06:29;;;;;;;4.78;2.78;;;15.80;89.70;;;;;;4975316;28;20050;-92
2022/12/09 14:08:59;;;;;;;3.88;2.75;;;15.80;89.80;;;;;;4976768;28;20046;-92
2022/12/09 14:11:37;;;;;;;;;;;15.70;89.70;;;;;;4977621;28;20026;-92
2022/12/09 14:14:23;;;;;;;4.85;2.72;;;15.70;89.80;;;;;;4976810;28;20102;-93
2022/12/09 14:17:13;;;;;;;5.05;3.22;;;15.70;89.70;;;;;;4976892;28;20369;-93
2022/12/09 14:19:41;;;;;;;5.65;3.33;;;15.70;89.80;;;;;;4960629;28;20146;-93
2022/12/09 14:22:17;;;;;;;4.55;3.00;;;15.70;89.90;;;;;;4956650;29;20031;-92
2022/12/09 14:24:49;;;;;;;5.30;3.15;;;15.70;89.90;;;;;;4965255;28;20338;-93
2022/12/09 14:27:21;;;;;;;5.07;3.17;;;15.70;89.90;;;;;;4976137;28;20031;-92
2022/12/09 14:30:22;;;;;;;5.72;3.30;;;15.70;90.00;;;;;;4976139;28;20404;-92
2022/12/09 14:32:48;;;;;;;3.95;2.88;;;15.70;90.00;;;;;;4975716;28;20034;-92
2022/12/09 14:35:13;;;;;;;5.07;2.92;;;15.60;89.90;;;;;;4977348;28;20031;-92
2022/12/09 14:37:56;;;;;;;3.35;2.50;;;15.60;90.00;;;;;;4968855;28;20067;-91
2022/12/09 14:40:49;;;;;;;10.18;3.08;;;15.60;90.00;;;;;;4956561;29;20027;-92
2022/12/09 14:43:42;;;;;;;6.47;2.90;;;15.60;90.00;;;;;;4972605;28;20023;-92
2022/12/09 14:46:31;;;;;;;5.32;3.25;;;15.60;90.10;;;;;;4972515;28;20082;-92
2022/12/09 14:49:17;;;;;;;4.07;3.17;;;15.60;90.10;;;;;;4972891;28;20023;-92
2022/12/09 14:51:53;;;;;;;4.22;2.88;;;15.60;90.10;;;;;;4972088;28;20034;-93
2022/12/09 14:54:32;;;;;;;5.57;3.20;;;15.50;90.10;;;;;;4981348;28;20083;-92
2022/12/09 14:57:01;;;;;;;6.88;3.17;;;15.50;90.10;;;;;;4993613;28;20037;-92
2022/12/09 14:59:29;;;;;;;3.60;2.88;;;15.50;90.10;;;;;;4978423;28;20074;-93
2022/12/09 15:01:57;;;;;;;6.65;3.47;;;15.50;90.50;;;;;;4956873;29;20065;-92
2022/12/09 15:04:32;;;;;;;5.15;2.90;;;15.50;90.20;;;;;;4957461;29;20031;-92
2022/12/09 15:07:15;;;;;;;3.95;2.78;;;15.50;90.20;;;;;;4955940;29;20058;-92
2022/12/09 15:09:51;;;;;;;3.67;2.58;;;15.50;90.20;;;;;;4956062;29;20118;-91
2022/12/09 15:12:20;;;;;;;2.75;2.45;;;15.40;90.20;;;;;;4956474;29;20060;-92
2022/12/09 15:14:50;;;;;;;3.30;2.53;;;15.40;90.30;;;;;;4956393;29;20442;-92
2022/12/09 15:17:31;;;;;;;4.30;3.17;;;15.40;90.30;;;;;;4958427;28;20069;-93
2022/12/09 15:19:57;;;;;;;5.00;2.85;;;15.40;90.30;;;;;;4975228;28;20037;-92
2022/12/09 15:22:28;;;;;;;6.50;3.10;;;15.40;90.30;;;;;;4976431;28;20026;-92
2022/12/09 15:24:53;;;;;;;4.03;2.78;;;15.30;90.30;;;;;;4974667;28;20066;-92
2022/12/09 15:27:22;;;;;;;4.57;3.53;;;15.30;90.30;;;;;;4975358;28;20050;-93
2022/12/09 15:29:48;;;;;;;5.03;3.15;;;15.40;90.40;;;;;;4975090;28;20109;-92
2022/12/09 15:32:23;;;;;;;4.28;2.83;;;15.40;90.30;;;;;;4975043;28;20070;-92
2022/12/09 15:34:48;;;;;;;5.95;3.38;;;15.40;90.30;;;;;;4974790;28;20030;-92
2022/12/09 15:37:16;;;;;;;6.40;3.22;;;15.50;90.20;;;;;;4990921;28;20047;-92
2022/12/09 15:39:48;;;;;;;4.53;2.83;;;15.50;90.30;;;;;;4974233;28;20039;-92
2022/12/09 15:42:20;;;;;;;3.67;2.78;;;15.50;90.20;;;;;;4954532;29;20027;-92
2022/12/09 15:45:08;;;;;;;4.88;2.83;;;15.60;90.20;;;;;;4954865;29;20033;-92
2022/12/09 15:47:51;;;;;;;5.07;2.97;;;15.60;90.20;;;;;;4963903;28;20050;-91
2022/12/09 15:50:37;;;;;;;3.45;2.45;;;15.70;90.20;;;;;;4954051;29;20485;-93
2022/12/09 15:53:14;;;;;;;4.55;3.20;;;15.70;90.10;;;;;;4953981;29;20035;-92
2022/12/09 15:56:01;;;;;;;4.80;2.83;;;15.70;90.10;;;;;;4953845;28;20027;-92
2022/12/09 15:58:33;;;;;;;4.38;2.30;;;15.70;90.00;;;;;;4953671;29;20023;-92
2022/12/09 16:00:59;;;;;;;4.28;3.00;;;15.80;90.00;;;;;;4954020;29;20023;-92
2022/12/09 16:03:28;;;;;;;4.45;2.90;;;15.80;90.00;;;;;;4954000;29;20074;-93
2022/12/09 16:05:58;;;;;;;3.38;2.72;;;15.90;90.00;;;;;;4953655;29;20035;-93
2022/12/09 16:08:32;;;;;;;4.55;2.90;;;15.80;90.00;;;;;;4953637;29;20055;-92
2022/12/09 16:10:58;;;;;;;4.32;3.20;;;15.80;90.00;;;;;;4954009;29;20106;-92
2022/12/09 16:13:24;;;;;;;5.05;2.63;;;15.80;90.00;;;;;;4953539;29;20031;-93
2022/12/09 16:15:55;;;;;;;4.05;2.80;;;15.80;89.90;;;;;;4960244;28;20507;-92
2022/12/09 16:18:33;;;;;;;4.22;2.63;;;15.80;89.90;;;;;;4972996;28;20400;-93
2022/12/09 16:21:12;;;;;;;3.83;2.75;;;15.80;90.00;;;;;;4973485;28;20667;-93
2022/12/09 16:23:37;;;;;;;4.20;2.78;;;15.80;89.90;;;;;;4973928;28;20027;-93
2022/12/09 16:26:03;;;;;;;4.88;2.65;;;15.80;89.80;;;;;;4973998;28;20121;-92
2022/12/09 16:28:29;;;;;;;4.78;3.08;;;15.80;89.80;;;;;;4974441;28;20042;-92
2022/12/09 16:31:01;;;;;;;4.82;2.83;;;15.80;89.80;;;;;;4978435;28;20030;-92
2022/12/09 16:33:38;;;;;;;3.65;2.88;;;15.80;89.70;;;;;;4980813;28;20469;-92
2022/12/09 16:36:05;;;;;;;3.30;2.70;;;15.80;89.70;;;;;;4971790;28;20532;-92
2022/12/09 16:38:36;;;;;;;3.05;2.45;;;15.80;89.80;;;;;;4977769;28;20062;-92
2022/12/09 16:41:03;;;;;;;3.83;2.60;;;15.80;89.90;;;;;;4969804;28;20597;-92
2022/12/09 16:43:29;;;;;;;3.67;2.70;;;15.70;89.90;;;;;;4958298;29;20132;-92
2022/12/09 16:46:01;;;;;;;2.60;2.40;;;15.70;89.90;;;;;;4958534;29;20070;-92
2022/12/09 16:48:29;;;;;;;3.97;2.63;;;15.70;89.90;;;;;;4966356;28;20046;-92
2022/12/09 16:51:13;;;;;;;3.08;2.58;;;15.60;89.90;;;;;;4958740;29;20034;-92
2022/12/09 16:53:51;;;;;;;4.80;2.83;;;15.70;89.90;;;;;;4958444;29;20023;-92
2022/12/09 16:56:28;;;;;;;4.47;2.88;;;15.60;89.90;;;;;;4958372;29;20035;-92
2022/12/09 16:58:55;;;;;;;2.95;2.47;;;15.70;90.00;;;;;;4958051;29;20572;-92
2022/12/09 17:01:24;;;;;;;3.63;2.53;;;15.60;90.00;;;;;;4958441;29;20019;-93
2022/12/09 17:03:55;;;;;;;3.80;2.65;;;15.60;90.00;;;;;;4958351;29;20027;-93
2022/12/09 17:06:20;;;;;;;3.97;2.80;;;15.60;90.00;;;;;;4960002;28;20445;-92